sensor_id;sensor_type;location;lat;lon;timestamp;P1;durP1;ratioP1;P2;durP2;ratioP2
10517;SDS011;5307;42.548;22.968;2024-03-02T00:01:04;53.33;;;28.10;;
10517;SDS011;5307;42.548;22.968;2024-03-02T00:03:33;57.08;;;29.23;;
10517;SDS011;5307;42.548;22.968;2024-03-02T00:05:59;52.42;;;26.05;;
10517;SDS011;5307;42.548;22.968;2024-03-02T00:08:26;49.42;;;24.67;;
10517;SDS011;5307;42.548;22.968;2024-03-02T00:10:56;50.20;;;27.92;;
10517;SDS011;5307;42.548;22.968;2024-03-02T00:13:24;53.83;;;27.33;;
10517;SDS011;5307;42.548;22.968;2024-03-02T00:15:51;56.28;;;27.30;;
10517;SDS011;5307;42.548;22.968;2024-03-02T00:18:19;51.22;;;26.90;;
10517;SDS011;5307;42.548;22.968;2024-03-02T00:20:49;51.65;;;25.50;;
10517;SDS011;5307;42.548;22.968;2024-03-02T00:23:19;53.92;;;25.85;;
10517;SDS011;5307;42.548;22.968;2024-03-02T00:25:47;50.85;;;24.85;;
10517;SDS011;5307;42.548;22.968;2024-03-02T00:28:19;57.55;;;26.73;;
10517;SDS011;5307;42.548;22.968;2024-03-02T00:30:57;57.38;;;25.92;;
10517;SDS011;5307;42.548;22.968;2024-03-02T00:33:30;52.08;;;27.02;;
10517;SDS011;5307;42.548;22.968;2024-03-02T00:35:59;54.95;;;28.52;;
10517;SDS011;5307;42.548;22.968;2024-03-02T00:38:28;55.35;;;28.85;;
10517;SDS011;5307;42.548;22.968;2024-03-02T00:40:55;62.42;;;31.35;;
10517;SDS011;5307;42.548;22.968;2024-03-02T00:43:43;56.28;;;28.42;;
10517;SDS011;5307;42.548;22.968;2024-03-02T00:46:13;62.08;;;29.85;;
10517;SDS011;5307;42.548;22.968;2024-03-02T00:48:46;70.30;;;32.17;;
10517;SDS011;5307;42.548;22.968;2024-03-02T00:51:18;76.30;;;34.47;;
10517;SDS011;5307;42.548;22.968;2024-03-02T00:53:45;76.70;;;34.95;;
10517;SDS011;5307;42.548;22.968;2024-03-02T00:56:12;79.57;;;33.33;;
10517;SDS011;5307;42.548;22.968;2024-03-02T00:58:40;63.38;;;30.40;;
10517;SDS011;5307;42.548;22.968;2024-03-02T01:01:06;56.63;;;27.45;;
10517;SDS011;5307;42.548;22.968;2024-03-02T01:03:33;61.40;;;29.05;;
10517;SDS011;5307;42.548;22.968;2024-03-02T01:06:00;56.88;;;28.10;;
10517;SDS011;5307;42.548;22.968;2024-03-02T01:08:28;57.67;;;28.88;;
10517;SDS011;5307;42.548;22.968;2024-03-02T01:10:55;57.08;;;29.02;;
10517;SDS011;5307;42.548;22.968;2024-03-02T01:13:22;56.17;;;30.00;;
10517;SDS011;5307;42.548;22.968;2024-03-02T01:15:49;56.22;;;29.23;;
10517;SDS011;5307;42.548;22.968;2024-03-02T01:18:16;55.72;;;27.80;;
10517;SDS011;5307;42.548;22.968;2024-03-02T01:20:43;59.25;;;28.38;;
10517;SDS011;5307;42.548;22.968;2024-03-02T01:23:10;55.17;;;28.70;;
10517;SDS011;5307;42.548;22.968;2024-03-02T01:25:38;53.60;;;27.73;;
10517;SDS011;5307;42.548;22.968;2024-03-02T01:28:05;59.53;;;29.30;;
10517;SDS011;5307;42.548;22.968;2024-03-02T01:30:32;56.47;;;28.15;;
10517;SDS011;5307;42.548;22.968;2024-03-02T01:32:58;60.00;;;27.77;;
10517;SDS011;5307;42.548;22.968;2024-03-02T01:35:25;55.28;;;27.17;;
10517;SDS011;5307;42.548;22.968;2024-03-02T01:37:52;56.25;;;27.08;;
10517;SDS011;5307;42.548;22.968;2024-03-02T01:40:19;58.08;;;29.27;;
10517;SDS011;5307;42.548;22.968;2024-03-02T01:42:47;58.17;;;29.77;;
10517;SDS011;5307;42.548;22.968;2024-03-02T01:45:14;57.65;;;29.85;;
10517;SDS011;5307;42.548;22.968;2024-03-02T01:47:41;57.88;;;29.40;;
10517;SDS011;5307;42.548;22.968;2024-03-02T01:50:08;65.93;;;32.33;;
10517;SDS011;5307;42.548;22.968;2024-03-02T01:52:36;62.58;;;29.67;;
10517;SDS011;5307;42.548;22.968;2024-03-02T01:55:04;56.08;;;28.15;;
10517;SDS011;5307;42.548;22.968;2024-03-02T01:57:32;59.80;;;29.35;;
10517;SDS011;5307;42.548;22.968;2024-03-02T02:00:01;63.47;;;32.15;;
10517;SDS011;5307;42.548;22.968;2024-03-02T02:02:28;62.67;;;30.63;;
10517;SDS011;5307;42.548;22.968;2024-03-02T02:04:55;60.80;;;28.85;;
10517;SDS011;5307;42.548;22.968;2024-03-02T02:07:22;65.70;;;30.20;;
10517;SDS011;5307;42.548;22.968;2024-03-02T02:09:48;58.92;;;29.98;;
10517;SDS011;5307;42.548;22.968;2024-03-02T02:12:15;60.28;;;27.25;;
10517;SDS011;5307;42.548;22.968;2024-03-02T02:14:46;48.50;;;24.48;;
10517;SDS011;5307;42.548;22.968;2024-03-02T02:17:16;52.00;;;25.67;;
10517;SDS011;5307;42.548;22.968;2024-03-02T02:19:42;51.78;;;25.38;;
10517;SDS011;5307;42.548;22.968;2024-03-02T02:22:11;50.25;;;25.05;;
10517;SDS011;5307;42.548;22.968;2024-03-02T02:24:41;56.17;;;26.13;;
10517;SDS011;5307;42.548;22.968;2024-03-02T02:27:08;56.30;;;25.25;;
10517;SDS011;5307;42.548;22.968;2024-03-02T02:29:35;60.08;;;27.42;;
10517;SDS011;5307;42.548;22.968;2024-03-02T02:32:03;59.17;;;27.58;;
10517;SDS011;5307;42.548;22.968;2024-03-02T02:34:30;55.08;;;26.90;;
10517;SDS011;5307;42.548;22.968;2024-03-02T02:36:56;58.47;;;28.48;;
10517;SDS011;5307;42.548;22.968;2024-03-02T02:39:24;54.97;;;26.08;;
10517;SDS011;5307;42.548;22.968;2024-03-02T02:41:52;44.92;;;23.35;;
10517;SDS011;5307;42.548;22.968;2024-03-02T02:44:18;52.75;;;24.83;;
10517;SDS011;5307;42.548;22.968;2024-03-02T02:46:45;46.50;;;25.83;;
10517;SDS011;5307;42.548;22.968;2024-03-02T02:49:12;46.63;;;24.08;;
10517;SDS011;5307;42.548;22.968;2024-03-02T02:51:38;48.38;;;24.45;;
10517;SDS011;5307;42.548;22.968;2024-03-02T02:54:05;46.78;;;24.25;;
10517;SDS011;5307;42.548;22.968;2024-03-02T02:56:33;47.97;;;25.33;;
10517;SDS011;5307;42.548;22.968;2024-03-02T02:59:00;53.88;;;25.92;;
10517;SDS011;5307;42.548;22.968;2024-03-02T03:01:27;49.53;;;25.15;;
10517;SDS011;5307;42.548;22.968;2024-03-02T03:03:53;47.03;;;24.23;;
10517;SDS011;5307;42.548;22.968;2024-03-02T03:06:20;42.45;;;22.92;;
10517;SDS011;5307;42.548;22.968;2024-03-02T03:08:47;51.28;;;23.15;;
10517;SDS011;5307;42.548;22.968;2024-03-02T03:11:14;48.00;;;23.35;;
10517;SDS011;5307;42.548;22.968;2024-03-02T03:13:42;47.83;;;23.95;;
10517;SDS011;5307;42.548;22.968;2024-03-02T03:16:09;50.58;;;25.15;;
10517;SDS011;5307;42.548;22.968;2024-03-02T03:18:35;60.47;;;26.60;;
10517;SDS011;5307;42.548;22.968;2024-03-02T03:21:03;49.88;;;24.98;;
10517;SDS011;5307;42.548;22.968;2024-03-02T03:23:30;50.80;;;24.75;;
10517;SDS011;5307;42.548;22.968;2024-03-02T03:25:57;46.15;;;22.20;;
10517;SDS011;5307;42.548;22.968;2024-03-02T03:28:23;42.75;;;20.77;;
10517;SDS011;5307;42.548;22.968;2024-03-02T03:30:51;44.20;;;21.42;;
10517;SDS011;5307;42.548;22.968;2024-03-02T03:33:18;43.50;;;21.38;;
10517;SDS011;5307;42.548;22.968;2024-03-02T03:35:45;39.10;;;19.92;;
10517;SDS011;5307;42.548;22.968;2024-03-02T03:38:25;35.78;;;19.67;;
10517;SDS011;5307;42.548;22.968;2024-03-02T03:40:52;39.22;;;20.80;;
10517;SDS011;5307;42.548;22.968;2024-03-02T03:43:19;37.55;;;19.70;;
10517;SDS011;5307;42.548;22.968;2024-03-02T03:45:46;42.88;;;20.38;;
10517;SDS011;5307;42.548;22.968;2024-03-02T03:48:14;41.05;;;19.98;;
10517;SDS011;5307;42.548;22.968;2024-03-02T03:50:40;41.15;;;20.88;;
10517;SDS011;5307;42.548;22.968;2024-03-02T03:53:07;41.20;;;20.60;;
10517;SDS011;5307;42.548;22.968;2024-03-02T03:55:34;39.55;;;20.80;;
10517;SDS011;5307;42.548;22.968;2024-03-02T03:58:00;43.85;;;22.10;;
10517;SDS011;5307;42.548;22.968;2024-03-02T04:00:27;43.30;;;21.55;;
10517;SDS011;5307;42.548;22.968;2024-03-02T04:02:54;43.05;;;23.13;;
10517;SDS011;5307;42.548;22.968;2024-03-02T04:05:23;43.17;;;21.27;;
10517;SDS011;5307;42.548;22.968;2024-03-02T04:07:49;42.60;;;22.00;;
10517;SDS011;5307;42.548;22.968;2024-03-02T04:10:16;43.78;;;22.70;;
10517;SDS011;5307;42.548;22.968;2024-03-02T04:12:43;50.15;;;22.80;;
10517;SDS011;5307;42.548;22.968;2024-03-02T04:15:09;45.45;;;23.23;;
10517;SDS011;5307;42.548;22.968;2024-03-02T04:17:36;46.92;;;22.38;;
10517;SDS011;5307;42.548;22.968;2024-03-02T04:20:04;44.85;;;22.67;;
10517;SDS011;5307;42.548;22.968;2024-03-02T04:22:34;44.33;;;22.42;;
10517;SDS011;5307;42.548;22.968;2024-03-02T04:25:01;45.50;;;22.17;;
10517;SDS011;5307;42.548;22.968;2024-03-02T04:27:29;44.40;;;22.08;;
10517;SDS011;5307;42.548;22.968;2024-03-02T04:29:56;46.25;;;22.02;;
10517;SDS011;5307;42.548;22.968;2024-03-02T04:32:23;43.92;;;20.38;;
10517;SDS011;5307;42.548;22.968;2024-03-02T04:34:50;44.40;;;23.52;;
10517;SDS011;5307;42.548;22.968;2024-03-02T04:37:16;46.42;;;24.30;;
10517;SDS011;5307;42.548;22.968;2024-03-02T04:39:44;45.08;;;23.45;;
10517;SDS011;5307;42.548;22.968;2024-03-02T04:42:11;49.05;;;23.80;;
10517;SDS011;5307;42.548;22.968;2024-03-02T04:44:38;43.40;;;22.95;;
10517;SDS011;5307;42.548;22.968;2024-03-02T04:47:05;41.47;;;22.58;;
10517;SDS011;5307;42.548;22.968;2024-03-02T04:49:31;47.60;;;22.17;;
10517;SDS011;5307;42.548;22.968;2024-03-02T04:51:58;40.00;;;21.25;;
10517;SDS011;5307;42.548;22.968;2024-03-02T04:54:25;42.78;;;22.83;;
10517;SDS011;5307;42.548;22.968;2024-03-02T04:56:53;44.10;;;22.05;;
10517;SDS011;5307;42.548;22.968;2024-03-02T04:59:20;42.83;;;22.38;;
10517;SDS011;5307;42.548;22.968;2024-03-02T05:01:47;49.20;;;23.10;;
10517;SDS011;5307;42.548;22.968;2024-03-02T05:04:13;55.80;;;24.50;;
10517;SDS011;5307;42.548;22.968;2024-03-02T05:06:40;39.38;;;21.52;;
10517;SDS011;5307;42.548;22.968;2024-03-02T05:09:07;42.33;;;20.67;;
10517;SDS011;5307;42.548;22.968;2024-03-02T05:11:34;39.42;;;20.85;;
10517;SDS011;5307;42.548;22.968;2024-03-02T05:14:20;48.72;;;23.23;;
10517;SDS011;5307;42.548;22.968;2024-03-02T05:16:46;42.30;;;22.30;;
10517;SDS011;5307;42.548;22.968;2024-03-02T05:19:13;39.70;;;22.20;;
10517;SDS011;5307;42.548;22.968;2024-03-02T05:21:40;43.30;;;21.52;;
10517;SDS011;5307;42.548;22.968;2024-03-02T05:24:06;37.72;;;19.92;;
10517;SDS011;5307;42.548;22.968;2024-03-02T05:26:33;41.60;;;20.77;;
10517;SDS011;5307;42.548;22.968;2024-03-02T05:29:00;43.05;;;21.33;;
10517;SDS011;5307;42.548;22.968;2024-03-02T05:31:29;40.63;;;21.60;;
10517;SDS011;5307;42.548;22.968;2024-03-02T05:33:56;41.17;;;22.02;;
10517;SDS011;5307;42.548;22.968;2024-03-02T05:36:22;40.38;;;20.75;;
10517;SDS011;5307;42.548;22.968;2024-03-02T05:38:49;34.25;;;19.20;;
10517;SDS011;5307;42.548;22.968;2024-03-02T05:41:16;38.35;;;19.58;;
10517;SDS011;5307;42.548;22.968;2024-03-02T05:43:43;36.28;;;19.70;;
10517;SDS011;5307;42.548;22.968;2024-03-02T05:46:09;35.28;;;19.92;;
10517;SDS011;5307;42.548;22.968;2024-03-02T05:48:38;35.20;;;19.65;;
10517;SDS011;5307;42.548;22.968;2024-03-02T05:51:06;43.47;;;21.95;;
10517;SDS011;5307;42.548;22.968;2024-03-02T05:53:32;43.00;;;21.77;;
10517;SDS011;5307;42.548;22.968;2024-03-02T05:56:00;53.58;;;26.33;;
10517;SDS011;5307;42.548;22.968;2024-03-02T05:58:26;63.53;;;29.02;;
10517;SDS011;5307;42.548;22.968;2024-03-02T06:01:08;61.95;;;28.90;;
10517;SDS011;5307;42.548;22.968;2024-03-02T06:03:34;53.03;;;25.10;;
10517;SDS011;5307;42.548;22.968;2024-03-02T06:06:03;47.83;;;25.08;;
10517;SDS011;5307;42.548;22.968;2024-03-02T06:08:30;39.55;;;22.48;;
10517;SDS011;5307;42.548;22.968;2024-03-02T06:10:57;51.10;;;24.58;;
10517;SDS011;5307;42.548;22.968;2024-03-02T06:13:24;59.85;;;28.25;;
10517;SDS011;5307;42.548;22.968;2024-03-02T06:15:51;65.93;;;32.67;;
10517;SDS011;5307;42.548;22.968;2024-03-02T06:18:18;65.55;;;33.65;;
10517;SDS011;5307;42.548;22.968;2024-03-02T06:20:44;69.22;;;34.50;;
10517;SDS011;5307;42.548;22.968;2024-03-02T06:23:12;63.55;;;31.75;;
10517;SDS011;5307;42.548;22.968;2024-03-02T06:25:39;60.40;;;30.55;;
10517;SDS011;5307;42.548;22.968;2024-03-02T06:28:06;63.95;;;32.70;;
10517;SDS011;5307;42.548;22.968;2024-03-02T06:30:33;61.78;;;30.70;;
10517;SDS011;5307;42.548;22.968;2024-03-02T06:32:59;59.13;;;29.83;;
10517;SDS011;5307;42.548;22.968;2024-03-02T06:35:26;55.35;;;29.05;;
10517;SDS011;5307;42.548;22.968;2024-03-02T06:37:53;62.63;;;32.72;;
10517;SDS011;5307;42.548;22.968;2024-03-02T06:40:21;59.90;;;30.17;;
10517;SDS011;5307;42.548;22.968;2024-03-02T06:42:48;56.03;;;29.88;;
10517;SDS011;5307;42.548;22.968;2024-03-02T06:45:14;56.70;;;29.88;;
10517;SDS011;5307;42.548;22.968;2024-03-02T06:47:41;55.40;;;32.13;;
10517;SDS011;5307;42.548;22.968;2024-03-02T06:50:08;58.38;;;30.30;;
10517;SDS011;5307;42.548;22.968;2024-03-02T06:52:35;64.25;;;31.67;;
10517;SDS011;5307;42.548;22.968;2024-03-02T06:55:02;63.92;;;34.20;;
10517;SDS011;5307;42.548;22.968;2024-03-02T06:57:32;77.30;;;39.03;;
10517;SDS011;5307;42.548;22.968;2024-03-02T06:59:58;73.00;;;38.38;;
10517;SDS011;5307;42.548;22.968;2024-03-02T07:02:25;69.25;;;34.35;;
10517;SDS011;5307;42.548;22.968;2024-03-02T07:04:52;61.72;;;32.10;;
10517;SDS011;5307;42.548;22.968;2024-03-02T07:07:19;59.95;;;31.10;;
10517;SDS011;5307;42.548;22.968;2024-03-02T07:09:45;61.80;;;30.55;;
10517;SDS011;5307;42.548;22.968;2024-03-02T07:12:12;53.20;;;28.73;;
10517;SDS011;5307;42.548;22.968;2024-03-02T07:14:40;46.72;;;25.90;;
10517;SDS011;5307;42.548;22.968;2024-03-02T07:17:24;47.72;;;26.85;;
10517;SDS011;5307;42.548;22.968;2024-03-02T07:19:51;57.22;;;31.65;;
10517;SDS011;5307;42.548;22.968;2024-03-02T07:22:17;53.70;;;28.23;;
10517;SDS011;5307;42.548;22.968;2024-03-02T07:24:44;51.53;;;27.90;;
10517;SDS011;5307;42.548;22.968;2024-03-02T07:27:12;45.55;;;25.95;;
10517;SDS011;5307;42.548;22.968;2024-03-02T07:29:41;46.95;;;24.77;;
10517;SDS011;5307;42.548;22.968;2024-03-02T07:32:08;41.38;;;21.70;;
10517;SDS011;5307;42.548;22.968;2024-03-02T07:34:36;42.67;;;22.42;;
10517;SDS011;5307;42.548;22.968;2024-03-02T07:37:04;46.40;;;23.15;;
10517;SDS011;5307;42.548;22.968;2024-03-02T07:39:31;43.33;;;23.35;;
10517;SDS011;5307;42.548;22.968;2024-03-02T07:48:41;40.65;;;21.98;;
10517;SDS011;5307;42.548;22.968;2024-03-02T07:51:08;43.28;;;20.83;;
10517;SDS011;5307;42.548;22.968;2024-03-02T07:53:35;35.10;;;18.75;;
10517;SDS011;5307;42.548;22.968;2024-03-02T07:56:02;39.85;;;20.95;;
10517;SDS011;5307;42.548;22.968;2024-03-02T07:58:29;41.20;;;21.30;;
10517;SDS011;5307;42.548;22.968;2024-03-02T08:00:58;37.85;;;21.27;;
10517;SDS011;5307;42.548;22.968;2024-03-02T08:03:26;37.25;;;20.08;;
10517;SDS011;5307;42.548;22.968;2024-03-02T08:05:54;39.97;;;22.50;;
10517;SDS011;5307;42.548;22.968;2024-03-02T08:08:21;35.90;;;20.50;;
10517;SDS011;5307;42.548;22.968;2024-03-02T08:10:48;45.65;;;24.50;;
10517;SDS011;5307;42.548;22.968;2024-03-02T08:13:14;32.05;;;19.63;;
10517;SDS011;5307;42.548;22.968;2024-03-02T08:15:41;33.75;;;20.00;;
10517;SDS011;5307;42.548;22.968;2024-03-02T08:18:08;39.03;;;19.90;;
10517;SDS011;5307;42.548;22.968;2024-03-02T08:20:34;32.70;;;19.65;;
10517;SDS011;5307;42.548;22.968;2024-03-02T08:23:03;43.03;;;24.95;;
10517;SDS011;5307;42.548;22.968;2024-03-02T08:25:30;27.50;;;17.75;;
10517;SDS011;5307;42.548;22.968;2024-03-02T08:27:57;26.00;;;15.60;;
10517;SDS011;5307;42.548;22.968;2024-03-02T08:30:24;53.17;;;29.58;;
10517;SDS011;5307;42.548;22.968;2024-03-02T08:32:51;27.45;;;16.55;;
10517;SDS011;5307;42.548;22.968;2024-03-02T08:35:18;27.83;;;15.40;;
10517;SDS011;5307;42.548;22.968;2024-03-02T08:37:44;35.15;;;19.52;;
10517;SDS011;5307;42.548;22.968;2024-03-02T08:40:13;34.20;;;21.33;;
10517;SDS011;5307;42.548;22.968;2024-03-02T08:42:40;29.08;;;17.80;;
10517;SDS011;5307;42.548;22.968;2024-03-02T08:45:07;31.30;;;19.35;;
10517;SDS011;5307;42.548;22.968;2024-03-02T08:47:34;27.42;;;16.95;;
10517;SDS011;5307;42.548;22.968;2024-03-02T08:50:01;36.15;;;19.90;;
10517;SDS011;5307;42.548;22.968;2024-03-02T08:52:30;27.52;;;17.40;;
10517;SDS011;5307;42.548;22.968;2024-03-02T08:54:56;82.10;;;39.80;;
10517;SDS011;5307;42.548;22.968;2024-03-02T08:57:25;69.43;;;32.25;;
10517;SDS011;5307;42.548;22.968;2024-03-02T08:59:51;27.58;;;16.35;;
10517;SDS011;5307;42.548;22.968;2024-03-02T09:02:18;26.70;;;16.17;;
10517;SDS011;5307;42.548;22.968;2024-03-02T09:04:45;24.50;;;14.52;;
10517;SDS011;5307;42.548;22.968;2024-03-02T09:07:12;22.55;;;14.43;;
10517;SDS011;5307;42.548;22.968;2024-03-02T09:09:38;23.10;;;14.73;;
10517;SDS011;5307;42.548;22.968;2024-03-02T09:12:05;18.90;;;11.73;;
10517;SDS011;5307;42.548;22.968;2024-03-02T09:14:34;22.33;;;13.65;;
10517;SDS011;5307;42.548;22.968;2024-03-02T09:17:01;27.13;;;14.18;;
10517;SDS011;5307;42.548;22.968;2024-03-02T09:19:29;74.35;;;35.03;;
10517;SDS011;5307;42.548;22.968;2024-03-02T09:21:56;36.65;;;18.92;;
10517;SDS011;5307;42.548;22.968;2024-03-02T09:24:23;18.88;;;12.00;;
10517;SDS011;5307;42.548;22.968;2024-03-02T09:26:50;155.90;;;66.25;;
10517;SDS011;5307;42.548;22.968;2024-03-02T09:29:17;32.67;;;17.00;;
10517;SDS011;5307;42.548;22.968;2024-03-02T09:31:47;26.50;;;15.10;;
10517;SDS011;5307;42.548;22.968;2024-03-02T09:34:14;27.80;;;14.50;;
10517;SDS011;5307;42.548;22.968;2024-03-02T09:36:41;19.30;;;11.45;;
10517;SDS011;5307;42.548;22.968;2024-03-02T09:39:08;33.05;;;16.90;;
10517;SDS011;5307;42.548;22.968;2024-03-02T09:41:35;19.35;;;11.68;;
10517;SDS011;5307;42.548;22.968;2024-03-02T09:44:03;33.83;;;15.30;;
10517;SDS011;5307;42.548;22.968;2024-03-02T09:46:31;22.50;;;13.15;;
10517;SDS011;5307;42.548;22.968;2024-03-02T09:48:59;23.40;;;12.90;;
10517;SDS011;5307;42.548;22.968;2024-03-02T09:51:25;19.35;;;12.95;;
10517;SDS011;5307;42.548;22.968;2024-03-02T09:53:52;23.60;;;13.90;;
10517;SDS011;5307;42.548;22.968;2024-03-02T09:56:21;23.75;;;13.25;;
10517;SDS011;5307;42.548;22.968;2024-03-02T09:58:49;22.65;;;14.50;;
10517;SDS011;5307;42.548;22.968;2024-03-02T10:01:16;22.38;;;13.75;;
10517;SDS011;5307;42.548;22.968;2024-03-02T10:03:44;19.88;;;12.90;;
10517;SDS011;5307;42.548;22.968;2024-03-02T10:06:23;19.05;;;12.85;;
10517;SDS011;5307;42.548;22.968;2024-03-02T10:08:50;25.77;;;15.75;;
10517;SDS011;5307;42.548;22.968;2024-03-02T10:11:27;26.30;;;15.90;;
10517;SDS011;5307;42.548;22.968;2024-03-02T10:14:05;21.15;;;13.27;;
10517;SDS011;5307;42.548;22.968;2024-03-02T10:16:34;22.30;;;12.88;;
10517;SDS011;5307;42.548;22.968;2024-03-02T10:19:17;17.63;;;11.90;;
10517;SDS011;5307;42.548;22.968;2024-03-02T10:21:47;27.45;;;15.60;;
10517;SDS011;5307;42.548;22.968;2024-03-02T10:24:14;18.05;;;12.35;;
10517;SDS011;5307;42.548;22.968;2024-03-02T10:26:41;21.05;;;12.43;;
10517;SDS011;5307;42.548;22.968;2024-03-02T10:29:09;20.60;;;12.23;;
10517;SDS011;5307;42.548;22.968;2024-03-02T10:31:36;16.35;;;10.38;;
10517;SDS011;5307;42.548;22.968;2024-03-02T10:34:03;18.65;;;10.68;;
10517;SDS011;5307;42.548;22.968;2024-03-02T10:36:30;15.57;;;10.18;;
10517;SDS011;5307;42.548;22.968;2024-03-02T10:39:00;17.70;;;11.68;;
10517;SDS011;5307;42.548;22.968;2024-03-02T10:41:29;17.27;;;10.85;;
10517;SDS011;5307;42.548;22.968;2024-03-02T10:43:59;16.85;;;11.60;;
10517;SDS011;5307;42.548;22.968;2024-03-02T10:46:26;15.77;;;10.73;;
10517;SDS011;5307;42.548;22.968;2024-03-02T10:48:55;15.38;;;10.05;;
10517;SDS011;5307;42.548;22.968;2024-03-02T10:51:24;22.17;;;12.63;;
10517;SDS011;5307;42.548;22.968;2024-03-02T10:53:51;26.40;;;16.35;;
10517;SDS011;5307;42.548;22.968;2024-03-02T10:56:21;17.10;;;11.68;;
10517;SDS011;5307;42.548;22.968;2024-03-02T10:58:55;16.92;;;11.75;;
10517;SDS011;5307;42.548;22.968;2024-03-02T11:01:29;15.95;;;11.38;;
10517;SDS011;5307;42.548;22.968;2024-03-02T11:03:57;14.48;;;8.95;;
10517;SDS011;5307;42.548;22.968;2024-03-02T11:06:26;17.83;;;12.05;;
10517;SDS011;5307;42.548;22.968;2024-03-02T11:08:57;16.52;;;10.07;;
10517;SDS011;5307;42.548;22.968;2024-03-02T11:11:30;12.95;;;9.10;;
10517;SDS011;5307;42.548;22.968;2024-03-02T11:14:02;12.63;;;8.93;;
10517;SDS011;5307;42.548;22.968;2024-03-02T11:16:34;16.40;;;9.85;;
10517;SDS011;5307;42.548;22.968;2024-03-02T11:19:03;14.35;;;9.20;;
10517;SDS011;5307;42.548;22.968;2024-03-02T11:21:32;14.40;;;10.25;;
10517;SDS011;5307;42.548;22.968;2024-03-02T11:23:59;18.42;;;11.70;;
10517;SDS011;5307;42.548;22.968;2024-03-02T11:26:27;20.05;;;12.45;;
10517;SDS011;5307;42.548;22.968;2024-03-02T11:28:55;17.63;;;11.65;;
10517;SDS011;5307;42.548;22.968;2024-03-02T11:31:37;18.10;;;12.23;;
10517;SDS011;5307;42.548;22.968;2024-03-02T11:34:28;20.35;;;12.48;;
10517;SDS011;5307;42.548;22.968;2024-03-02T11:36:56;16.25;;;10.15;;
10517;SDS011;5307;42.548;22.968;2024-03-02T11:39:24;16.20;;;9.75;;
10517;SDS011;5307;42.548;22.968;2024-03-02T11:41:51;19.67;;;11.48;;
10517;SDS011;5307;42.548;22.968;2024-03-02T11:44:19;15.60;;;10.27;;
10517;SDS011;5307;42.548;22.968;2024-03-02T11:46:51;16.38;;;10.77;;
10517;SDS011;5307;42.548;22.968;2024-03-02T11:49:20;18.73;;;12.55;;
10517;SDS011;5307;42.548;22.968;2024-03-02T11:52:04;21.20;;;12.05;;
10517;SDS011;5307;42.548;22.968;2024-03-02T11:54:32;17.75;;;11.43;;
10517;SDS011;5307;42.548;22.968;2024-03-02T11:57:00;15.90;;;10.80;;
10517;SDS011;5307;42.548;22.968;2024-03-02T11:59:29;16.50;;;11.27;;
10517;SDS011;5307;42.548;22.968;2024-03-02T12:01:56;18.95;;;13.02;;
10517;SDS011;5307;42.548;22.968;2024-03-02T12:04:24;18.45;;;12.10;;
10517;SDS011;5307;42.548;22.968;2024-03-02T12:06:54;37.13;;;16.33;;
10517;SDS011;5307;42.548;22.968;2024-03-02T12:09:22;49.42;;;20.60;;
10517;SDS011;5307;42.548;22.968;2024-03-02T12:12:00;22.63;;;13.10;;
10517;SDS011;5307;42.548;22.968;2024-03-02T12:14:31;21.88;;;12.02;;
10517;SDS011;5307;42.548;22.968;2024-03-02T12:16:59;20.48;;;12.50;;
10517;SDS011;5307;42.548;22.968;2024-03-02T12:19:26;22.20;;;12.60;;
10517;SDS011;5307;42.548;22.968;2024-03-02T12:21:52;23.27;;;11.98;;
10517;SDS011;5307;42.548;22.968;2024-03-02T12:24:20;18.20;;;12.25;;
10517;SDS011;5307;42.548;22.968;2024-03-02T12:26:47;19.23;;;12.55;;
10517;SDS011;5307;42.548;22.968;2024-03-02T12:29:15;14.30;;;9.80;;
10517;SDS011;5307;42.548;22.968;2024-03-02T12:31:43;16.67;;;10.10;;
10517;SDS011;5307;42.548;22.968;2024-03-02T12:34:11;10.02;;;7.55;;
10517;SDS011;5307;42.548;22.968;2024-03-02T12:36:39;9.95;;;6.90;;
10517;SDS011;5307;42.548;22.968;2024-03-02T12:39:07;10.48;;;6.90;;
10517;SDS011;5307;42.548;22.968;2024-03-02T12:41:35;9.07;;;6.50;;
10517;SDS011;5307;42.548;22.968;2024-03-02T12:44:04;13.02;;;7.38;;
10517;SDS011;5307;42.548;22.968;2024-03-02T12:46:31;13.45;;;9.05;;
10517;SDS011;5307;42.548;22.968;2024-03-02T12:49:04;11.40;;;8.02;;
10517;SDS011;5307;42.548;22.968;2024-03-02T12:51:36;14.25;;;8.10;;
10517;SDS011;5307;42.548;22.968;2024-03-02T12:54:03;19.42;;;8.73;;
10517;SDS011;5307;42.548;22.968;2024-03-02T12:56:30;15.70;;;10.45;;
10517;SDS011;5307;42.548;22.968;2024-03-02T12:58:58;15.63;;;9.68;;
10517;SDS011;5307;42.548;22.968;2024-03-02T13:01:25;14.52;;;9.48;;
10517;SDS011;5307;42.548;22.968;2024-03-02T13:03:52;13.20;;;8.02;;
10517;SDS011;5307;42.548;22.968;2024-03-02T13:06:22;14.13;;;9.48;;
10517;SDS011;5307;42.548;22.968;2024-03-02T13:08:49;12.70;;;8.75;;
10517;SDS011;5307;42.548;22.968;2024-03-02T13:11:16;14.65;;;8.60;;
10517;SDS011;5307;42.548;22.968;2024-03-02T13:13:43;14.75;;;10.13;;
10517;SDS011;5307;42.548;22.968;2024-03-02T13:16:10;14.80;;;8.10;;
10517;SDS011;5307;42.548;22.968;2024-03-02T13:18:38;12.50;;;8.50;;
10517;SDS011;5307;42.548;22.968;2024-03-02T13:21:04;11.98;;;8.02;;
10517;SDS011;5307;42.548;22.968;2024-03-02T13:23:33;11.98;;;8.20;;
10517;SDS011;5307;42.548;22.968;2024-03-02T13:25:59;13.05;;;8.55;;
10517;SDS011;5307;42.548;22.968;2024-03-02T13:28:26;12.10;;;9.07;;
10517;SDS011;5307;42.548;22.968;2024-03-02T13:30:53;13.25;;;9.70;;
10517;SDS011;5307;42.548;22.968;2024-03-02T13:33:20;16.92;;;10.57;;
10517;SDS011;5307;42.548;22.968;2024-03-02T13:35:48;15.10;;;10.20;;
10517;SDS011;5307;42.548;22.968;2024-03-02T13:38:16;16.02;;;9.90;;
10517;SDS011;5307;42.548;22.968;2024-03-02T13:40:44;20.27;;;11.10;;
10517;SDS011;5307;42.548;22.968;2024-03-02T13:43:11;14.50;;;9.60;;
10517;SDS011;5307;42.548;22.968;2024-03-02T13:45:38;16.30;;;11.15;;
10517;SDS011;5307;42.548;22.968;2024-03-02T13:48:05;17.20;;;9.77;;
10517;SDS011;5307;42.548;22.968;2024-03-02T13:50:32;13.63;;;9.30;;
10517;SDS011;5307;42.548;22.968;2024-03-02T13:59:00;11.23;;;8.10;;
10517;SDS011;5307;42.548;22.968;2024-03-02T14:01:27;14.48;;;9.00;;
10517;SDS011;5307;42.548;22.968;2024-03-02T14:03:54;14.02;;;8.60;;
10517;SDS011;5307;42.548;22.968;2024-03-02T14:06:21;17.55;;;11.10;;
10517;SDS011;5307;42.548;22.968;2024-03-02T14:08:48;13.50;;;8.32;;
10517;SDS011;5307;42.548;22.968;2024-03-02T14:11:14;11.13;;;7.43;;
10517;SDS011;5307;42.548;22.968;2024-03-02T14:13:41;9.30;;;6.18;;
10517;SDS011;5307;42.548;22.968;2024-03-02T14:16:11;9.35;;;6.68;;
10517;SDS011;5307;42.548;22.968;2024-03-02T14:18:37;11.10;;;6.25;;
10517;SDS011;5307;42.548;22.968;2024-03-02T14:21:04;12.85;;;7.32;;
10517;SDS011;5307;42.548;22.968;2024-03-02T14:23:31;19.65;;;9.70;;
10517;SDS011;5307;42.548;22.968;2024-03-02T14:25:58;13.35;;;7.93;;
10517;SDS011;5307;42.548;22.968;2024-03-02T14:28:24;15.48;;;10.55;;
10517;SDS011;5307;42.548;22.968;2024-03-02T14:30:51;12.73;;;8.43;;
10517;SDS011;5307;42.548;22.968;2024-03-02T14:33:20;12.65;;;8.65;;
10517;SDS011;5307;42.548;22.968;2024-03-02T14:35:47;8.25;;;5.32;;
10517;SDS011;5307;42.548;22.968;2024-03-02T14:38:14;8.00;;;5.80;;
10517;SDS011;5307;42.548;22.968;2024-03-02T14:40:40;8.73;;;5.95;;